sensor_id;sensor_type;location;lat;lon;timestamp;temperature;humidity
23120;DHT22;11729;50.836;4.330;2023-02-01T00:01:44;8.70;99.90
23120;DHT22;11729;50.836;4.330;2023-02-01T00:04:10;8.70;99.90
23120;DHT22;11729;50.836;4.330;2023-02-01T00:06:35;8.70;99.90
23120;DHT22;11729;50.836;4.330;2023-02-01T00:09:01;8.70;99.90
23120;DHT22;11729;50.836;4.330;2023-02-01T00:11:27;8.60;99.90
23120;DHT22;11729;50.836;4.330;2023-02-01T00:13:54;8.70;99.90
23120;DHT22;11729;50.836;4.330;2023-02-01T00:16:25;8.70;99.90
23120;DHT22;11729;50.836;4.330;2023-02-01T00:18:56;8.80;99.90
23120;DHT22;11729;50.836;4.330;2023-02-01T00:21:22;8.80;99.90
23120;DHT22;11729;50.836;4.330;2023-02-01T00:23:48;8.80;99.90
23120;DHT22;11729;50.836;4.330;2023-02-01T00:26:30;8.70;99.90
23120;DHT22;11729;50.836;4.330;2023-02-01T00:28:57;8.60;99.90
23120;DHT22;11729;50.836;4.330;2023-02-01T00:31:22;8.60;99.90
23120;DHT22;11729;50.836;4.330;2023-02-01T00:33:48;8.50;99.90
23120;DHT22;11729;50.836;4.330;2023-02-01T00:36:14;8.40;99.90
23120;DHT22;11729;50.836;4.330;2023-02-01T00:38:39;8.50;99.90
23120;DHT22;11729;50.836;4.330;2023-02-01T00:41:09;8.60;99.90
23120;DHT22;11729;50.836;4.330;2023-02-01T00:43:35;8.70;99.90
23120;DHT22;11729;50.836;4.330;2023-02-01T00:46:01;8.60;99.90
23120;DHT22;11729;50.836;4.330;2023-02-01T00:48:26;8.50;99.90
23120;DHT22;11729;50.836;4.330;2023-02-01T00:50:52;8.50;99.90
23120;DHT22;11729;50.836;4.330;2023-02-01T00:53:18;8.60;99.90
23120;DHT22;11729;50.836;4.330;2023-02-01T00:55:45;8.70;99.90
23120;DHT22;11729;50.836;4.330;2023-02-01T00:58:11;8.60;99.90
23120;DHT22;11729;50.836;4.330;2023-02-01T01:00:38;8.80;99.90
23120;DHT22;11729;50.836;4.330;2023-02-01T01:03:05;8.70;99.90
23120;DHT22;11729;50.836;4.330;2023-02-01T01:05:45;8.70;99.90
23120;DHT22;11729;50.836;4.330;2023-02-01T01:08:11;8.70;99.90
23120;DHT22;11729;50.836;4.330;2023-02-01T01:10:36;8.60;99.90
23120;DHT22;11729;50.836;4.330;2023-02-01T01:13:02;8.70;99.90
23120;DHT22;11729;50.836;4.330;2023-02-01T01:15:28;8.70;99.90
23120;DHT22;11729;50.836;4.330;2023-02-01T01:17:54;8.60;99.90
23120;DHT22;11729;50.836;4.330;2023-02-01T01:20:19;8.50;99.90
23120;DHT22;11729;50.836;4.330;2023-02-01T01:22:47;8.40;99.90
23120;DHT22;11729;50.836;4.330;2023-02-01T01:25:13;8.30;99.90
23120;DHT22;11729;50.836;4.330;2023-02-01T01:27:40;8.30;99.90
23120;DHT22;11729;50.836;4.330;2023-02-01T01:30:06;8.30;99.90
23120;DHT22;11729;50.836;4.330;2023-02-01T01:32:32;8.30;99.90
23120;DHT22;11729;50.836;4.330;2023-02-01T01:34:58;8.40;99.90
23120;DHT22;11729;50.836;4.330;2023-02-01T01:37:23;8.60;99.90
23120;DHT22;11729;50.836;4.330;2023-02-01T01:39:49;8.50;99.90
23120;DHT22;11729;50.836;4.330;2023-02-01T01:42:15;8.40;99.90
23120;DHT22;11729;50.836;4.330;2023-02-01T01:45:04;8.40;99.90
23120;DHT22;11729;50.836;4.330;2023-02-01T01:47:43;8.30;99.90
23120;DHT22;11729;50.836;4.330;2023-02-01T01:50:13;8.60;99.90
23120;DHT22;11729;50.836;4.330;2023-02-01T01:52:43;8.60;99.90
23120;DHT22;11729;50.836;4.330;2023-02-01T01:55:14;8.60;99.90
23120;DHT22;11729;50.836;4.330;2023-02-01T01:57:44;8.70;99.90
23120;DHT22;11729;50.836;4.330;2023-02-01T02:00:14;8.50;99.90
23120;DHT22;11729;50.836;4.330;2023-02-01T02:02:43;8.70;99.90
23120;DHT22;11729;50.836;4.330;2023-02-01T02:05:10;8.70;99.90
23120;DHT22;11729;50.836;4.330;2023-02-01T02:07:40;8.60;99.90
23120;DHT22;11729;50.836;4.330;2023-02-01T02:10:09;8.60;99.90
23120;DHT22;11729;50.836;4.330;2023-02-01T02:12:39;8.70;99.90
23120;DHT22;11729;50.836;4.330;2023-02-01T02:15:08;8.60;99.90
23120;DHT22;11729;50.836;4.330;2023-02-01T02:22:49;8.30;99.90
23120;DHT22;11729;50.836;4.330;2023-02-01T02:34:06;8.40;99.90
23120;DHT22;11729;50.836;4.330;2023-02-01T02:37:00;8.50;99.90
23120;DHT22;11729;50.836;4.330;2023-02-01T02:42:32;8.70;99.90
23120;DHT22;11729;50.836;4.330;2023-02-01T02:45:33;8.90;99.90
23120;DHT22;11729;50.836;4.330;2023-02-01T02:48:44;8.50;99.90
23120;DHT22;11729;50.836;4.330;2023-02-01T02:51:29;8.50;99.90
23120;DHT22;11729;50.836;4.330;2023-02-01T02:54:39;8.60;99.90
23120;DHT22;11729;50.836;4.330;2023-02-01T03:00:16;8.60;99.90
23120;DHT22;11729;50.836;4.330;2023-02-01T03:03:01;8.50;99.90
23120;DHT22;11729;50.836;4.330;2023-02-01T03:05:47;8.40;99.90
23120;DHT22;11729;50.836;4.330;2023-02-01T03:08:20;8.50;99.90
23120;DHT22;11729;50.836;4.330;2023-02-01T03:11:02;8.60;99.90
23120;DHT22;11729;50.836;4.330;2023-02-01T03:19:09;8.00;99.90
23120;DHT22;11729;50.836;4.330;2023-02-01T03:24:17;7.80;99.90
23120;DHT22;11729;50.836;4.330;2023-02-01T03:26:54;7.80;99.90
23120;DHT22;11729;50.836;4.330;2023-02-01T03:29:33;7.80;99.90
23120;DHT22;11729;50.836;4.330;2023-02-01T03:32:02;7.80;99.90
23120;DHT22;11729;50.836;4.330;2023-02-01T03:34:28;7.80;99.90
23120;DHT22;11729;50.836;4.330;2023-02-01T03:37:05;7.80;99.90
23120;DHT22;11729;50.836;4.330;2023-02-01T03:39:40;7.80;99.90
23120;DHT22;11729;50.836;4.330;2023-02-01T03:42:24;8.00;99.90
23120;DHT22;11729;50.836;4.330;2023-02-01T03:47:40;8.20;99.90
23120;DHT22;11729;50.836;4.330;2023-02-01T03:50:10;8.00;99.90
23120;DHT22;11729;50.836;4.330;2023-02-01T03:53:01;8.00;99.90
23120;DHT22;11729;50.836;4.330;2023-02-01T03:55:28;8.00;99.90
23120;DHT22;11729;50.836;4.330;2023-02-01T03:57:59;7.80;99.90
23120;DHT22;11729;50.836;4.330;2023-02-01T04:00:28;7.70;99.90
23120;DHT22;11729;50.836;4.330;2023-02-01T04:02:54;7.50;99.90
23120;DHT22;11729;50.836;4.330;2023-02-01T04:05:21;7.70;99.90
23120;DHT22;11729;50.836;4.330;2023-02-01T04:07:46;7.60;99.90
23120;DHT22;11729;50.836;4.330;2023-02-01T04:10:12;7.60;99.90
23120;DHT22;11729;50.836;4.330;2023-02-01T04:12:38;7.60;99.90
23120;DHT22;11729;50.836;4.330;2023-02-01T04:15:04;7.50;99.90
23120;DHT22;11729;50.836;4.330;2023-02-01T04:17:30;7.40;99.90
23120;DHT22;11729;50.836;4.330;2023-02-01T04:19:55;7.40;99.90
23120;DHT22;11729;50.836;4.330;2023-02-01T04:22:21;7.60;99.90
23120;DHT22;11729;50.836;4.330;2023-02-01T04:24:47;7.50;99.90
23120;DHT22;11729;50.836;4.330;2023-02-01T04:27:12;7.30;99.90
23120;DHT22;11729;50.836;4.330;2023-02-01T04:29:39;7.30;99.90
23120;DHT22;11729;50.836;4.330;2023-02-01T04:32:05;7.30;99.90
23120;DHT22;11729;50.836;4.330;2023-02-01T04:34:31;7.10;99.90
23120;DHT22;11729;50.836;4.330;2023-02-01T04:36:56;7.20;99.90
23120;DHT22;11729;50.836;4.330;2023-02-01T04:39:22;7.10;99.90
23120;DHT22;11729;50.836;4.330;2023-02-01T04:41:47;7.00;99.90
23120;DHT22;11729;50.836;4.330;2023-02-01T04:44:15;7.00;99.90
23120;DHT22;11729;50.836;4.330;2023-02-01T04:46:41;7.10;99.90
23120;DHT22;11729;50.836;4.330;2023-02-01T04:49:09;7.00;99.90
23120;DHT22;11729;50.836;4.330;2023-02-01T04:51:35;7.00;99.90
23120;DHT22;11729;50.836;4.330;2023-02-01T04:54:01;7.00;99.90
23120;DHT22;11729;50.836;4.330;2023-02-01T04:56:27;6.90;99.90
23120;DHT22;11729;50.836;4.330;2023-02-01T04:58:52;7.00;99.90
23120;DHT22;11729;50.836;4.330;2023-02-01T05:01:18;6.90;99.90
23120;DHT22;11729;50.836;4.330;2023-02-01T05:03:45;6.80;99.90
23120;DHT22;11729;50.836;4.330;2023-02-01T05:06:10;6.80;99.90
23120;DHT22;11729;50.836;4.330;2023-02-01T05:08:36;6.90;99.90
23120;DHT22;11729;50.836;4.330;2023-02-01T05:11:02;6.80;99.90
23120;DHT22;11729;50.836;4.330;2023-02-01T05:13:30;6.80;99.90
23120;DHT22;11729;50.836;4.330;2023-02-01T05:16:15;6.80;99.90
23120;DHT22;11729;50.836;4.330;2023-02-01T05:18:40;6.80;99.90
23120;DHT22;11729;50.836;4.330;2023-02-01T05:21:06;6.80;99.90
23120;DHT22;11729;50.836;4.330;2023-02-01T05:23:31;6.90;99.90
23120;DHT22;11729;50.836;4.330;2023-02-01T05:26:01;6.80;99.90
23120;DHT22;11729;50.836;4.330;2023-02-01T05:28:27;6.70;99.90
23120;DHT22;11729;50.836;4.330;2023-02-01T05:30:53;6.70;99.90
23120;DHT22;11729;50.836;4.330;2023-02-01T05:33:19;6.60;99.90
23120;DHT22;11729;50.836;4.330;2023-02-01T05:35:45;6.50;99.90
23120;DHT22;11729;50.836;4.330;2023-02-01T05:38:11;6.50;99.90
23120;DHT22;11729;50.836;4.330;2023-02-01T05:40:36;6.50;99.90
23120;DHT22;11729;50.836;4.330;2023-02-01T05:43:03;6.50;99.90
23120;DHT22;11729;50.836;4.330;2023-02-01T05:45:28;6.60;99.90
23120;DHT22;11729;50.836;4.330;2023-02-01T05:47:54;6.50;99.90
23120;DHT22;11729;50.836;4.330;2023-02-01T05:50:19;6.50;99.90
23120;DHT22;11729;50.836;4.330;2023-02-01T05:52:45;6.30;99.90
23120;DHT22;11729;50.836;4.330;2023-02-01T05:55:11;6.40;99.90
23120;DHT22;11729;50.836;4.330;2023-02-01T05:57:36;6.50;99.90
23120;DHT22;11729;50.836;4.330;2023-02-01T06:00:03;6.40;99.90
23120;DHT22;11729;50.836;4.330;2023-02-01T06:02:30;6.20;99.90
23120;DHT22;11729;50.836;4.330;2023-02-01T06:05:01;6.30;99.90
23120;DHT22;11729;50.836;4.330;2023-02-01T06:07:27;6.30;99.90
23120;DHT22;11729;50.836;4.330;2023-02-01T06:09:52;6.20;99.90
23120;DHT22;11729;50.836;4.330;2023-02-01T06:12:18;6.20;99.90
23120;DHT22;11729;50.836;4.330;2023-02-01T06:14:44;6.10;99.90
23120;DHT22;11729;50.836;4.330;2023-02-01T06:17:10;6.20;99.90
23120;DHT22;11729;50.836;4.330;2023-02-01T06:19:36;6.10;99.90
23120;DHT22;11729;50.836;4.330;2023-02-01T06:22:01;6.10;99.90
23120;DHT22;11729;50.836;4.330;2023-02-01T06:24:27;6.00;99.90
23120;DHT22;11729;50.836;4.330;2023-02-01T06:26:52;6.00;99.90
23120;DHT22;11729;50.836;4.330;2023-02-01T06:29:18;6.10;99.90
23120;DHT22;11729;50.836;4.330;2023-02-01T06:31:43;6.10;99.90
23120;DHT22;11729;50.836;4.330;2023-02-01T06:34:09;6.10;99.90
23120;DHT22;11729;50.836;4.330;2023-02-01T06:36:35;6.20;99.90
23120;DHT22;11729;50.836;4.330;2023-02-01T06:39:02;6.20;99.90
23120;DHT22;11729;50.836;4.330;2023-02-01T06:41:27;6.00;99.90
23120;DHT22;11729;50.836;4.330;2023-02-01T06:43:54;6.10;99.90
23120;DHT22;11729;50.836;4.330;2023-02-01T06:46:20;6.10;99.90
23120;DHT22;11729;50.836;4.330;2023-02-01T06:48:46;6.10;99.90
23120;DHT22;11729;50.836;4.330;2023-02-01T06:51:26;6.20;99.90
23120;DHT22;11729;50.836;4.330;2023-02-01T06:53:52;6.20;99.90
23120;DHT22;11729;50.836;4.330;2023-02-01T06:56:18;6.10;99.90
23120;DHT22;11729;50.836;4.330;2023-02-01T06:58:44;6.10;99.90
23120;DHT22;11729;50.836;4.330;2023-02-01T07:01:10;6.10;99.90
23120;DHT22;11729;50.836;4.330;2023-02-01T07:03:36;6.00;99.90
23120;DHT22;11729;50.836;4.330;2023-02-01T07:06:02;6.00;99.90
23120;DHT22;11729;50.836;4.330;2023-02-01T07:08:33;6.00;99.90
23120;DHT22;11729;50.836;4.330;2023-02-01T07:11:04;6.00;99.90
23120;DHT22;11729;50.836;4.330;2023-02-01T07:13:29;6.00;99.90
23120;DHT22;11729;50.836;4.330;2023-02-01T07:16:00;6.00;99.90
23120;DHT22;11729;50.836;4.330;2023-02-01T07:18:27;6.00;99.90
23120;DHT22;11729;50.836;4.330;2023-02-01T07:20:54;6.00;99.90
23120;DHT22;11729;50.836;4.330;2023-02-01T07:23:19;6.00;99.90
23120;DHT22;11729;50.836;4.330;2023-02-01T07:25:46;5.90;99.90
23120;DHT22;11729;50.836;4.330;2023-02-01T07:28:14;5.80;99.90
23120;DHT22;11729;50.836;4.330;2023-02-01T07:30:40;5.80;99.90
23120;DHT22;11729;50.836;4.330;2023-02-01T07:33:06;5.80;99.90
23120;DHT22;11729;50.836;4.330;2023-02-01T07:35:34;5.80;99.90
23120;DHT22;11729;50.836;4.330;2023-02-01T07:38:01;5.90;99.90
23120;DHT22;11729;50.836;4.330;2023-02-01T07:40:28;6.00;99.90
23120;DHT22;11729;50.836;4.330;2023-02-01T07:42:55;5.90;99.90
23120;DHT22;11729;50.836;4.330;2023-02-01T07:45:21;6.00;99.90
23120;DHT22;11729;50.836;4.330;2023-02-01T07:47:47;6.10;99.90
23120;DHT22;11729;50.836;4.330;2023-02-01T07:50:13;6.10;99.90
23120;DHT22;11729;50.836;4.330;2023-02-01T07:52:38;6.10;99.90
23120;DHT22;11729;50.836;4.330;2023-02-01T07:55:05;6.20;99.90
23120;DHT22;11729;50.836;4.330;2023-02-01T07:57:32;6.30;99.90
23120;DHT22;11729;50.836;4.330;2023-02-01T07:59:58;6.40;99.90
23120;DHT22;11729;50.836;4.330;2023-02-01T08:02:43;6.40;99.90
23120;DHT22;11729;50.836;4.330;2023-02-01T08:05:09;6.50;99.90
23120;DHT22;11729;50.836;4.330;2023-02-01T08:07:34;6.70;99.90
23120;DHT22;11729;50.836;4.330;2023-02-01T08:10:00;6.80;99.90
23120;DHT22;11729;50.836;4.330;2023-02-01T08:12:26;6.90;99.90
23120;DHT22;11729;50.836;4.330;2023-02-01T08:14:52;6.90;99.90
23120;DHT22;11729;50.836;4.330;2023-02-01T08:17:19;7.00;99.90
23120;DHT22;11729;50.836;4.330;2023-02-01T08:19:45;7.00;99.90
23120;DHT22;11729;50.836;4.330;2023-02-01T08:22:10;7.00;99.90
23120;DHT22;11729;50.836;4.330;2023-02-01T08:24:36;7.10;99.90
23120;DHT22;11729;50.836;4.330;2023-02-01T08:27:05;7.10;99.90
23120;DHT22;11729;50.836;4.330;2023-02-01T08:29:30;7.30;99.90
23120;DHT22;11729;50.836;4.330;2023-02-01T08:31:56;7.20;99.90
23120;DHT22;11729;50.836;4.330;2023-02-01T08:34:22;7.20;99.90
23120;DHT22;11729;50.836;4.330;2023-02-01T08:36:47;7.10;99.90
23120;DHT22;11729;50.836;4.330;2023-02-01T08:39:13;7.10;99.90
23120;DHT22;11729;50.836;4.330;2023-02-01T08:41:38;7.20;99.90
23120;DHT22;11729;50.836;4.330;2023-02-01T08:44:05;7.30;99.90
23120;DHT22;11729;50.836;4.330;2023-02-01T08:46:31;7.40;99.90
23120;DHT22;11729;50.836;4.330;2023-02-01T08:48:56;7.40;99.90
23120;DHT22;11729;50.836;4.330;2023-02-01T08:51:23;7.50;99.90
23120;DHT22;11729;50.836;4.330;2023-02-01T08:53:49;7.60;99.90
23120;DHT22;11729;50.836;4.330;2023-02-01T08:56:16;7.60;99.90
23120;DHT22;11729;50.836;4.330;2023-02-01T08:58:42;7.90;99.90
23120;DHT22;11729;50.836;4.330;2023-02-01T09:01:10;8.00;99.90
23120;DHT22;11729;50.836;4.330;2023-02-01T09:03:37;8.20;99.90
23120;DHT22;11729;50.836;4.330;2023-02-01T09:06:10;8.30;99.90
23120;DHT22;11729;50.836;4.330;2023-02-01T09:08:36;8.30;99.90
23120;DHT22;11729;50.836;4.330;2023-02-01T09:11:05;8.40;99.90
23120;DHT22;11729;50.836;4.330;2023-02-01T09:13:31;8.30;99.90
23120;DHT22;11729;50.836;4.330;2023-02-01T09:15:59;8.40;99.90
23120;DHT22;11729;50.836;4.330;2023-02-01T09:18:25;8.50;99.90
23120;DHT22;11729;50.836;4.330;2023-02-01T09:20:51;8.60;99.90
23120;DHT22;11729;50.836;4.330;2023-02-01T09:23:16;8.80;99.90
23120;DHT22;11729;50.836;4.330;2023-02-01T09:25:42;8.80;99.90
23120;DHT22;11729;50.836;4.330;2023-02-01T09:28:08;8.80;99.90
23120;DHT22;11729;50.836;4.330;2023-02-01T09:30:35;8.80;99.90
23120;DHT22;11729;50.836;4.330;2023-02-01T09:33:01;8.70;99.90
23120;DHT22;11729;50.836;4.330;2023-02-01T09:35:28;8.70;99.90
23120;DHT22;11729;50.836;4.330;2023-02-01T09:37:54;8.70;99.90
23120;DHT22;11729;50.836;4.330;2023-02-01T09:40:20;8.80;99.90
23120;DHT22;11729;50.836;4.330;2023-02-01T09:45:29;8.70;99.90
23120;DHT22;11729;50.836;4.330;2023-02-01T09:48:15;8.70;99.90
23120;DHT22;11729;50.836;4.330;2023-02-01T09:50:48;8.80;99.90
23120;DHT22;11729;50.836;4.330;2023-02-01T09:53:37;8.90;99.90
23120;DHT22;11729;50.836;4.330;2023-02-01T09:59:18;8.80;99.90
23120;DHT22;11729;50.836;4.330;2023-02-01T10:01:47;8.90;99.90
23120;DHT22;11729;50.836;4.330;2023-02-01T10:04:14;9.00;99.90
23120;DHT22;11729;50.836;4.330;2023-02-01T10:09:52;9.30;99.90
23120;DHT22;11729;50.836;4.330;2023-02-01T10:18:06;9.50;99.90
23120;DHT22;11729;50.836;4.330;2023-02-01T10:20:52;9.50;99.90
23120;DHT22;11729;50.836;4.330;2023-02-01T10:23:57;9.50;99.90
23120;DHT22;11729;50.836;4.330;2023-02-01T10:26:32;9.50;99.90
23120;DHT22;11729;50.836;4.330;2023-02-01T10:29:01;9.30;99.90
23120;DHT22;11729;50.836;4.330;2023-02-01T10:31:30;9.20;99.90
23120;DHT22;11729;50.836;4.330;2023-02-01T10:33:59;9.30;99.90
23120;DHT22;11729;50.836;4.330;2023-02-01T10:36:32;9.50;99.90
23120;DHT22;11729;50.836;4.330;2023-02-01T10:39:02;9.60;99.90
23120;DHT22;11729;50.836;4.330;2023-02-01T10:41:36;9.50;99.90
23120;DHT22;11729;50.836;4.330;2023-02-01T10:44:12;9.60;99.90
23120;DHT22;11729;50.836;4.330;2023-02-01T10:46:38;9.60;99.90
23120;DHT22;11729;50.836;4.330;2023-02-01T10:49:05;9.70;99.90
23120;DHT22;11729;50.836;4.330;2023-02-01T10:52:22;9.80;99.90
23120;DHT22;11729;50.836;4.330;2023-02-01T10:54:32;9.80;99.90
23120;DHT22;11729;50.836;4.330;2023-02-01T10:57:00;9.90;99.90
23120;DHT22;11729;50.836;4.330;2023-02-01T10:59:29;10.00;99.90
23120;DHT22;11729;50.836;4.330;2023-02-01T11:02:05;10.10;99.90
23120;DHT22;11729;50.836;4.330;2023-02-01T11:04:36;10.30;99.90
23120;DHT22;11729;50.836;4.330;2023-02-01T11:07:12;10.50;99.90
23120;DHT22;11729;50.836;4.330;2023-02-01T11:09:41;10.70;99.90
23120;DHT22;11729;50.836;4.330;2023-02-01T11:12:34;10.70;99.90
23120;DHT22;11729;50.836;4.330;2023-02-01T11:15:12;10.80;99.90
23120;DHT22;11729;50.836;4.330;2023-02-01T11:17:43;11.00;99.90
23120;DHT22;11729;50.836;4.330;2023-02-01T11:20:26;11.00;99.90
23120;DHT22;11729;50.836;4.330;2023-02-01T11:22:59;10.90;99.90
23120;DHT22;11729;50.836;4.330;2023-02-01T11:25:26;11.10;99.90
23120;DHT22;11729;50.836;4.330;2023-02-01T11:27:54;11.30;99.90
23120;DHT22;11729;50.836;4.330;2023-02-01T11:30:41;11.60;99.90
23120;DHT22;11729;50.836;4.330;2023-02-01T11:33:20;11.90;99.90
23120;DHT22;11729;50.836;4.330;2023-02-01T11:35:51;11.80;99.90
23120;DHT22;11729;50.836;4.330;2023-02-01T11:38:26;12.10;99.90
23120;DHT22;11729;50.836;4.330;2023-02-01T11:40:52;11.90;99.90
23120;DHT22;11729;50.836;4.330;2023-02-01T11:43:25;12.00;99.90
23120;DHT22;11729;50.836;4.330;2023-02-01T11:46:02;11.80;99.90
23120;DHT22;11729;50.836;4.330;2023-02-01T11:48:31;11.80;99.90
23120;DHT22;11729;50.836;4.330;2023-02-01T11:51:08;11.80;99.90
23120;DHT22;11729;50.836;4.330;2023-02-01T12:13:23;12.80;99.90
23120;DHT22;11729;50.836;4.330;2023-02-01T12:16:07;13.00;99.90
23120;DHT22;11729;50.836;4.330;2023-02-01T12:19:06;13.20;99.90
23120;DHT22;11729;50.836;4.330;2023-02-01T12:24:24;13.50;99.90
23120;DHT22;11729;50.836;4.330;2023-02-01T12:32:09;14.00;99.90
23120;DHT22;11729;50.836;4.330;2023-02-01T12:43:28;13.40;99.90
23120;DHT22;11729;50.836;4.330;2023-02-01T12:45:42;13.70;99.90
23120;DHT22;11729;50.836;4.330;2023-02-01T12:48:25;13.50;99.90
23120;DHT22;11729;50.836;4.330;2023-02-01T12:51:06;13.10;99.90
23120;DHT22;11729;50.836;4.330;2023-02-01T12:53:47;12.90;99.90
23120;DHT22;11729;50.836;4.330;2023-02-01T12:56:39;13.00;99.90
23120;DHT22;11729;50.836;4.330;2023-02-01T12:59:16;13.90;99.90
23120;DHT22;11729;50.836;4.330;2023-02-01T13:04:31;16.00;99.90
23120;DHT22;11729;50.836;4.330;2023-02-01T13:09:40;17.50;99.70
23120;DHT22;11729;50.836;4.330;2023-02-01T13:12:22;18.60;97.20
23120;DHT22;11729;50.836;4.330;2023-02-01T13:14:57;19.50;92.30
23120;DHT22;11729;50.836;4.330;2023-02-01T13:17:30;19.40;91.70
23120;DHT22;11729;50.836;4.330;2023-02-01T13:20:03;19.10;86.90
23120;DHT22;11729;50.836;4.330;2023-02-01T13:22:41;18.80;90.50
23120;DHT22;11729;50.836;4.330;2023-02-01T13:25:15;18.10;90.10
23120;DHT22;11729;50.836;4.330;2023-02-01T13:27:42;17.40;92.20
23120;DHT22;11729;50.836;4.330;2023-02-01T13:30:20;18.50;91.80
23120;DHT22;11729;50.836;4.330;2023-02-01T13:38:32;17.90;90.80
23120;DHT22;11729;50.836;4.330;2023-02-01T13:43:50;17.10;92.10
23120;DHT22;11729;50.836;4.330;2023-02-01T13:46:17;16.90;92.60
23120;DHT22;11729;50.836;4.330;2023-02-01T13:48:47;16.50;93.20
23120;DHT22;11729;50.836;4.330;2023-02-01T13:51:14;17.10;93.00
23120;DHT22;11729;50.836;4.330;2023-02-01T13:53:46;18.10;91.30
23120;DHT22;11729;50.836;4.330;2023-02-01T13:56:16;17.40;91.20
23120;DHT22;11729;50.836;4.330;2023-02-01T13:58:44;16.80;92.20
23120;DHT22;11729;50.836;4.330;2023-02-01T14:03:48;16.70;93.30
23120;DHT22;11729;50.836;4.330;2023-02-01T14:19:32;17.40;92.50
23120;DHT22;11729;50.836;4.330;2023-02-01T14:22:33;16.90;92.80
23120;DHT22;11729;50.836;4.330;2023-02-01T14:24:55;16.10;94.50
23120;DHT22;11729;50.836;4.330;2023-02-01T14:27:24;15.10;96.80
23120;DHT22;11729;50.836;4.330;2023-02-01T14:29:56;14.50;98.90
23120;DHT22;11729;50.836;4.330;2023-02-01T14:32:30;14.20;99.90
23120;DHT22;11729;50.836;4.330;2023-02-01T14:34:59;13.50;99.90
23120;DHT22;11729;50.836;4.330;2023-02-01T14:37:30;12.90;99.90
23120;DHT22;11729;50.836;4.330;2023-02-01T14:40:13;12.80;99.90
23120;DHT22;11729;50.836;4.330;2023-02-01T14:42:44;12.70;99.90
23120;DHT22;11729;50.836;4.330;2023-02-01T14:55:51;12.00;99.90
23120;DHT22;11729;50.836;4.330;2023-02-01T14:58:28;12.20;99.90
23120;DHT22;11729;50.836;4.330;2023-02-01T15:01:04;12.10;99.90
23120;DHT22;11729;50.836;4.330;2023-02-01T15:06:32;12.10;99.90
23120;DHT22;11729;50.836;4.330;2023-02-01T15:09:09;12.00;99.90
23120;DHT22;11729;50.836;4.330;2023-02-01T15:17:37;11.50;99.90
23120;DHT22;11729;50.836;4.330;2023-02-01T15:20:24;11.80;99.90
23120;DHT22;11729;50.836;4.330;2023-02-01T15:23:01;11.80;99.90
23120;DHT22;11729;50.836;4.330;2023-02-01T15:25:30;11.60;99.90
23120;DHT22;11729;50.836;4.330;2023-02-01T15:27:56;11.50;99.90
23120;DHT22;11729;50.836;4.330;2023-02-01T15:30:27;11.40;99.90
23120;DHT22;11729;50.836;4.330;2023-02-01T15:35:46;11.60;99.90
23120;DHT22;11729;50.836;4.330;2023-02-01T15:41:10;11.40;99.90
23120;DHT22;11729;50.836;4.330;2023-02-01T15:43:39;11.30;99.90
23120;DHT22;11729;50.836;4.330;2023-02-01T15:46:11;11.10;99.90
23120;DHT22;11729;50.836;4.330;2023-02-01T15:48:49;11.10;99.90
23120;DHT22;11729;50.836;4.330;2023-02-01T15:51:25;11.20;99.90
23120;DHT22;11729;50.836;4.330;2023-02-01T15:54:22;11.30;99.90
23120;DHT22;11729;50.836;4.330;2023-02-01T15:56:51;11.30;99.90
23120;DHT22;11729;50.836;4.330;2023-02-01T15:59:24;11.30;99.90
23120;DHT22;11729;50.836;4.330;2023-02-01T16:01:50;11.20;99.90
23120;DHT22;11729;50.836;4.330;2023-02-01T16:04:20;11.10;99.90
23120;DHT22;11729;50.836;4.330;2023-02-01T16:07:20;11.10;99.90
23120;DHT22;11729;50.836;4.330;2023-02-01T16:09:56;11.20;99.90
23120;DHT22;11729;50.836;4.330;2023-02-01T16:12:46;11.10;99.90
23120;DHT22;11729;50.836;4.330;2023-02-01T16:15:12;11.10;99.90
23120;DHT22;11729;50.836;4.330;2023-02-01T16:17:38;10.90;99.90
23120;DHT22;11729;50.836;4.330;2023-02-01T16:20:04;10.80;99.90
23120;DHT22;11729;50.836;4.330;2023-02-01T16:22:30;10.70;99.90
23120;DHT22;11729;50.836;4.330;2023-02-01T16:24:56;10.70;99.90
23120;DHT22;11729;50.836;4.330;2023-02-01T16:27:23;10.60;99.90
23120;DHT22;11729;50.836;4.330;2023-02-01T16:29:49;10.80;99.90
23120;DHT22;11729;50.836;4.330;2023-02-01T16:32:19;10.90;99.90
23120;DHT22;11729;50.836;4.330;2023-02-01T16:34:46;10.90;99.90
23120;DHT22;11729;50.836;4.330;2023-02-01T16:37:14;10.70;99.90
23120;DHT22;11729;50.836;4.330;2023-02-01T16:39:42;10.70;99.90
23120;DHT22;11729;50.836;4.330;2023-02-01T16:42:15;10.60;99.90
23120;DHT22;11729;50.836;4.330;2023-02-01T16:44:41;10.70;99.90
23120;DHT22;11729;50.836;4.330;2023-02-01T16:47:19;10.90;99.90
23120;DHT22;11729;50.836;4.330;2023-02-01T16:49:46;10.90;99.90
23120;DHT22;11729;50.836;4.330;2023-02-01T16:52:21;10.80;99.90
23120;DHT22;11729;50.836;4.330;2023-02-01T16:54:47;10.70;99.90
23120;DHT22;11729;50.836;4.330;2023-02-01T16:57:14;10.70;99.90
23120;DHT22;11729;50.836;4.330;2023-02-01T16:59:41;10.70;99.90
23120;DHT22;11729;50.836;4.330;2023-02-01T17:02:12;10.70;99.90
23120;DHT22;11729;50.836;4.330;2023-02-01T17:04:38;10.80;99.90
23120;DHT22;11729;50.836;4.330;2023-02-01T17:07:04;10.80;99.90
23120;DHT22;11729;50.836;4.330;2023-02-01T17:09:36;10.70;99.90
23120;DHT22;11729;50.836;4.330;2023-02-01T17:12:04;10.50;99.90
23120;DHT22;11729;50.836;4.330;2023-02-01T17:14:31;10.40;99.90
23120;DHT22;11729;50.836;4.330;2023-02-01T17:16:57;10.40;99.90
23120;DHT22;11729;50.836;4.330;2023-02-01T17:19:23;10.30;99.90
23120;DHT22;11729;50.836;4.330;2023-02-01T17:21:51;10.60;99.90
23120;DHT22;11729;50.836;4.330;2023-02-01T17:24:21;10.80;99.90
23120;DHT22;11729;50.836;4.330;2023-02-01T17:26:47;10.80;99.90
23120;DHT22;11729;50.836;4.330;2023-02-01T17:29:14;10.70;99.90
23120;DHT22;11729;50.836;4.330;2023-02-01T17:31:46;10.70;99.90
23120;DHT22;11729;50.836;4.330;2023-02-01T17:34:14;10.60;99.90
23120;DHT22;11729;50.836;4.330;2023-02-01T17:36:42;10.30;99.90
23120;DHT22;11729;50.836;4.330;2023-02-01T17:39:09;10.20;99.90
23120;DHT22;11729;50.836;4.330;2023-02-01T17:41:36;10.30;99.90
23120;DHT22;11729;50.836;4.330;2023-02-01T17:44:03;10.30;99.90
23120;DHT22;11729;50.836;4.330;2023-02-01T17:46:33;10.10;99.90
23120;DHT22;11729;50.836;4.330;2023-02-01T17:48:58;10.10;99.90
23120;DHT22;11729;50.836;4.330;2023-02-01T17:51:27;10.30;99.90
23120;DHT22;11729;50.836;4.330;2023-02-01T17:53:53;10.20;99.90
23120;DHT22;11729;50.836;4.330;2023-02-01T17:56:24;10.20;99.90
23120;DHT22;11729;50.836;4.330;2023-02-01T17:58:50;10.30;99.90
23120;DHT22;11729;50.836;4.330;2023-02-01T18:01:23;10.30;99.90
23120;DHT22;11729;50.836;4.330;2023-02-01T18:03:50;10.50;99.90
23120;DHT22;11729;50.836;4.330;2023-02-01T18:06:22;10.50;99.90
23120;DHT22;11729;50.836;4.330;2023-02-01T18:08:48;10.40;99.90
23120;DHT22;11729;50.836;4.330;2023-02-01T18:11:17;10.40;99.90
23120;DHT22;11729;50.836;4.330;2023-02-01T18:13:43;10.50;99.90
23120;DHT22;11729;50.836;4.330;2023-02-01T18:16:26;10.50;99.90